Time;durP1;ratioP1;P1;durP2;ratioP2;P2;SDS_P1;SDS_P2;PMS_P1;PMS_P2;Temp;Humidity;BMP_temperature;BMP_pressure;BME280_temperature;BME280_humidity;BME280_pressure;Samples;Min_cycle;Max_cycle;Signal;HPM_P1;HPM_P2
2021/06/14 00:00:43;;;;;;;10.33;4.33;;;;;;;11.07;65.65;99248.17;125682;1095;103064;-74
2021/06/14 00:03:16;;;;;;;9.50;3.37;;;;;;;11.06;65.74;99244.64;125582;1096;102980;-75
2021/06/14 00:05:45;;;;;;;10.23;4.07;;;;;;;11.07;65.84;99242.84;126183;1095;102953;-75
2021/06/14 00:08:18;;;;;;;9.00;3.70;;;;;;;11.07;65.75;99246.34;125608;1095;103080;-75
2021/06/14 00:10:49;;;;;;;10.37;4.30;;;;;;;11.08;65.79;99244.55;125641;1095;102920;-75
2021/06/14 00:13:19;;;;;;;6.87;3.77;;;;;;;11.08;65.80;99245.38;125669;1096;103036;-76
2021/06/14 00:15:49;;;;;;;12.90;4.57;;;;;;;11.06;65.86;99252.63;125677;1096;102939;-76
2021/06/14 00:18:20;;;;;;;8.47;3.40;;;;;;;11.06;65.99;99246.47;125641;1097;102977;-78
2021/06/14 00:20:55;;;;;;;11.23;4.30;;;;;;;11.05;65.84;99242.10;125653;1095;102941;-76
2021/06/14 00:23:27;;;;;;;13.37;4.60;;;;;;;11.03;66.17;99239.53;125437;1096;102930;-75
2021/06/14 00:25:58;;;;;;;10.10;3.50;;;;;;;11.01;66.32;99250.30;125687;1096;102952;-76
2021/06/14 00:28:28;;;;;;;8.10;3.60;;;;;;;11.02;66.20;99253.80;125632;1095;102930;-78
2021/06/14 00:30:57;;;;;;;9.97;3.50;;;;;;;11.01;66.15;99252.10;125636;1095;103071;-76
2021/06/14 00:33:25;;;;;;;12.80;4.07;;;;;;;11.00;66.31;99261.91;125593;1095;102914;-76
2021/06/14 00:35:55;;;;;;;11.30;4.50;;;;;;;10.99;66.08;99251.39;125427;1096;103009;-76
2021/06/14 00:38:24;;;;;;;13.93;3.87;;;;;;;10.97;66.58;99254.14;125732;1096;102916;-76
2021/06/14 00:40:53;;;;;;;10.17;3.77;;;;;;;10.97;66.37;99245.33;125671;1095;103508;-76
2021/06/14 00:43:22;;;;;;;10.23;4.40;;;;;;;10.97;66.62;99247.98;125629;1096;103000;-78
2021/06/14 00:45:53;;;;;;;11.00;4.00;;;;;;;10.97;66.44;99247.98;125678;1096;102997;-76
2021/06/14 00:48:22;;;;;;;8.90;3.70;;;;;;;10.96;66.45;99251.61;125708;1095;103534;-77
2021/06/14 00:50:58;;;;;;;15.30;4.97;;;;;;;10.96;66.67;99255.10;125691;1096;102990;-76
2021/06/14 00:53:33;;;;;;;12.80;4.37;;;;;;;10.96;66.74;99252.44;125655;1096;103015;-77
2021/06/14 00:56:09;;;;;;;10.50;3.90;;;;;;;10.96;66.70;99251.61;125642;1096;102998;-77
2021/06/14 00:58:41;;;;;;;11.03;3.90;;;;;;;10.94;66.57;99245.55;125685;1096;103044;-76
2021/06/14 01:01:10;;;;;;;8.80;3.97;;;;;;;10.93;66.77;99244.67;125654;1096;102942;-76
2021/06/14 01:03:42;;;;;;;11.70;4.50;;;;;;;10.93;66.81;99243.84;125716;1095;103001;-77
2021/06/14 01:06:13;;;;;;;11.20;4.13;;;;;;;10.92;66.68;99247.46;125653;1094;103370;-75
2021/06/14 01:08:53;;;;;;;12.40;4.63;;;;;;;10.91;66.71;99248.42;125644;1095;102928;-76
2021/06/14 01:11:50;;;;;;;12.03;4.60;;;;;;;10.90;66.82;99254.70;125696;1096;103380;-77
2021/06/14 01:14:39;;;;;;;12.63;5.30;;;;;;;10.86;66.90;99251.39;125664;1096;103127;-78
2021/06/14 01:17:15;;;;;;;13.47;4.30;;;;;;;10.87;67.01;99250.43;125669;1097;103031;-77
2021/06/14 01:20:14;;;;;;;13.65;4.60;;;;;;;10.85;67.03;99249.69;125689;1096;102997;-77
2021/06/14 01:23:01;;;;;;;14.53;5.17;;;;;;;10.84;67.10;99253.31;125674;1096;103004;-75
2021/06/14 01:25:40;;;;;;;12.33;4.13;;;;;;;10.83;67.20;99241.83;125705;1096;103026;-75
2021/06/14 01:28:13;;;;;;;18.20;4.73;;;;;;;10.81;67.12;99241.09;125665;1096;103116;-77
2021/06/14 01:30:43;;;;;;;13.37;4.47;;;;;;;10.82;67.28;99249.91;125680;1096;102998;-76
2021/06/14 01:33:15;;;;;;;14.60;5.03;;;;;;;10.82;67.37;99241.92;125693;1096;103010;-77
2021/06/14 01:35:52;;;;;;;12.27;4.27;;;;;;;10.84;67.21;99237.34;125676;1096;103053;-78
2021/06/14 01:38:25;;;;;;;15.67;4.70;;;;;;;10.82;67.45;99244.58;125691;1096;103071;-79
2021/06/14 01:40:58;;;;;;;14.00;4.53;;;;;;;10.81;67.35;99233.10;125660;1096;102944;-78
2021/06/14 01:43:30;;;;;;;13.33;4.77;;;;;;;10.81;67.36;99232.23;125698;1096;102993;-78
2021/06/14 01:46:04;;;;;;;12.05;4.43;;;;;;;10.81;67.46;99245.54;125659;1095;103063;-75
2021/06/14 01:48:36;;;;;;;11.93;4.40;;;;;;;10.80;67.41;99241.21;125427;1096;102910;-76
2021/06/14 01:51:08;;;;;;;13.27;5.00;;;;;;;10.80;67.59;99238.55;125618;1095;103090;-75
2021/06/14 01:53:39;;;;;;;12.77;4.10;;;;;;;10.78;67.49;99241.30;125590;1095;103010;-76
2021/06/14 01:56:09;;;;;;;12.03;4.27;;;;;;;10.77;67.61;99234.28;125649;1095;103016;-76
2021/06/14 01:58:43;;;;;;;10.33;4.37;;;;;;;10.78;67.54;99248.45;125669;1096;102914;-77
2021/06/14 02:01:12;;;;;;;8.98;4.15;;;;;;;10.77;67.53;99244.92;125665;1094;102909;-76
2021/06/14 02:03:41;;;;;;;16.33;4.87;;;;;;;10.78;67.51;99246.63;125667;1095;102919;-77
2021/06/14 02:06:10;;;;;;;14.60;4.13;;;;;;;10.79;67.69;99247.48;125644;1096;103021;-77
2021/06/14 02:08:38;;;;;;;11.50;4.33;;;;;;;10.79;67.71;99258.97;125511;1097;103016;-76
2021/06/14 02:11:06;;;;;;;14.03;4.33;;;;;;;10.80;67.75;99257.17;125657;1096;103096;-76
2021/06/14 02:13:36;;;;;;;13.23;3.93;;;;;;;10.80;67.58;99251.85;125681;1096;102910;-77
2021/06/14 02:16:05;;;;;;;13.50;5.17;;;;;;;10.82;67.76;99247.24;125676;1095;103375;-78
2021/06/14 02:18:33;;;;;;;11.97;4.20;;;;;;;10.83;67.71;99255.13;125655;1096;103014;-78
2021/06/14 02:21:02;;;;;;;12.63;4.60;;;;;;;10.81;67.95;99246.41;125688;1095;102916;-79
2021/06/14 02:23:31;;;;;;;14.13;4.20;;;;;;;10.82;67.81;99247.24;125641;1096;103133;-77
2021/06/14 02:26:00;;;;;;;12.97;4.40;;;;;;;10.82;67.92;99249.91;125654;1095;103058;-78
2021/06/14 02:28:28;;;;;;;18.35;5.10;;;;;;;10.82;67.93;99257.89;125699;1096;103018;-78
2021/06/14 02:30:57;;;;;;;11.90;3.93;;;;;;;10.82;68.01;99249.91;125650;1096;103004;-77
2021/06/14 02:33:25;;;;;;;12.43;4.60;;;;;;;10.83;68.03;99259.59;125687;1096;103068;-78
2021/06/14 02:35:54;;;;;;;15.80;4.87;;;;;;;10.84;68.12;99255.97;125674;1095;103047;-78
2021/06/14 02:38:25;;;;;;;14.50;4.40;;;;;;;10.85;68.27;99253.22;125684;1097;103013;-77
2021/06/14 02:40:56;;;;;;;11.27;4.23;;;;;;;10.85;67.98;99258.54;125693;1095;103030;-76
2021/06/14 02:43:25;;;;;;;15.70;4.87;;;;;;;10.85;68.11;99258.54;125679;1096;103010;-76
2021/06/14 02:45:54;;;;;;;11.70;4.43;;;;;;;10.86;68.09;99267.36;125717;1097;103017;-76
2021/06/14 02:48:24;;;;;;;18.67;5.57;;;;;;;10.87;68.05;99269.06;125667;1097;102945;-77
2021/06/14 02:50:55;;;;;;;12.87;4.80;;;;;;;10.87;68.33;99269.06;125658;1096;103022;-77
2021/06/14 02:53:29;;;;;;;11.23;4.40;;;;;;;10.87;68.15;99271.72;125667;1095;103012;-78
2021/06/14 02:56:05;;;;;;;9.45;4.15;;;;;;;10.88;68.39;99278.75;125688;1095;102985;-77
2021/06/14 02:58:38;;;;;;;13.47;4.63;;;;;;;10.89;68.28;99271.63;125701;1096;103074;-77
2021/06/14 03:01:09;;;;;;;;;;;;;;;10.87;68.48;99272.59;125706;1096;102942;-76
2021/06/14 03:03:43;;;;;;;16.20;5.00;;;;;;;10.87;68.36;99275.25;125647;1096;102924;-75
2021/06/14 03:06:15;;;;;;;15.57;4.90;;;;;;;10.87;68.33;99280.57;125651;1095;103010;-76
2021/06/14 03:08:48;;;;;;;14.93;5.03;;;;;;;10.86;68.36;99273.55;125670;1094;102950;-75
2021/06/14 03:11:19;;;;;;;16.70;4.67;;;;;;;10.86;68.44;99278.87;125438;1096;103000;-75
2021/06/14 03:13:49;;;;;;;10.67;4.53;;;;;;;10.87;68.52;99269.92;125664;1096;102938;-76
2021/06/14 03:16:20;;;;;;;14.37;6.57;;;;;;;10.89;68.52;99274.29;125683;1096;102994;-75
2021/06/14 03:18:50;;;;;;;15.90;4.90;;;;;;;10.89;68.48;99283.11;125693;1095;102922;-75
2021/06/14 03:21:22;;;;;;;12.30;4.20;;;;;;;10.91;68.53;99277.70;125625;1094;103004;-75
2021/06/14 03:23:52;;;;;;;13.17;5.20;;;;;;;10.91;68.39;99275.88;125669;1096;102949;-77
2021/06/14 03:26:27;;;;;;;17.27;5.00;;;;;;;10.92;68.55;99284.72;125676;1096;102934;-77
2021/06/14 03:28:58;;;;;;;19.47;4.80;;;;;;;10.92;68.70;99285.55;125645;1095;103018;-75
2021/06/14 03:31:28;;;;;;;15.03;4.23;;;;;;;10.94;68.47;99288.96;125709;1096;102920;-77
2021/06/14 03:34:00;;;;;;;13.60;4.30;;;;;;;10.96;68.76;99280.89;125646;1095;103016;-78
2021/06/14 03:36:30;;;;;;;16.90;4.80;;;;;;;10.97;68.72;99280.77;125448;1095;103000;-77
2021/06/14 03:39:01;;;;;;;14.30;4.73;;;;;;;10.99;68.79;99280.67;125429;1095;103102;-78
2021/06/14 03:41:31;;;;;;;18.83;5.00;;;;;;;11.01;68.79;99279.59;125641;1095;102941;-77
2021/06/14 03:44:04;;;;;;;14.83;4.40;;;;;;;11.03;68.92;99282.13;125581;1095;102976;-77
2021/06/14 03:46:32;;;;;;;13.93;4.75;;;;;;;11.03;68.81;99276.80;125561;1096;103032;-77
2021/06/14 03:49:06;;;;;;;13.40;4.77;;;;;;;11.06;68.77;99281.07;125698;1096;103019;-77
2021/06/14 03:51:36;;;;;;;11.73;4.50;;;;;;;11.08;68.76;99281.81;125612;1095;103065;-77
2021/06/14 03:54:06;;;;;;;10.50;4.60;;;;;;;11.09;68.77;99283.52;125577;1094;102808;-77
2021/06/14 03:56:37;;;;;;;13.37;4.00;;;;;;;11.08;68.98;99287.97;125670;1096;102940;-76
2021/06/14 03:59:06;;;;;;;12.63;4.30;;;;;;;11.11;69.05;99281.59;125438;1095;102990;-76
2021/06/14 04:01:35;;;;;;;11.40;4.10;;;;;;;11.13;69.04;99288.50;125832;1094;103032;-75
2021/06/14 04:06:41;;;;;;;14.23;4.73;;;;;;;11.19;69.09;99292.55;125640;1095;102951;-75
2021/06/14 04:09:10;;;;;;;12.13;4.80;;;;;;;11.22;69.14;99288.81;125669;1096;102941;-75
2021/06/14 04:11:38;;;;;;;14.40;4.60;;;;;;;11.23;68.90;99285.19;125595;1096;102998;-75
2021/06/14 04:14:07;;;;;;;13.17;4.30;;;;;;;11.25;69.17;99297.41;125698;1096;103582;-75
2021/06/14 04:16:35;;;;;;;21.67;4.83;;;;;;;11.28;69.14;99297.19;125678;1096;103175;-75
2021/06/14 04:19:04;;;;;;;12.53;4.17;;;;;;;11.30;69.19;99295.27;125475;1095;102924;-74
2021/06/14 04:21:32;;;;;;;13.63;4.33;;;;;;;11.33;69.07;99296.88;125381;1096;103090;-75
2021/06/14 04:24:00;;;;;;;16.80;5.10;;;;;;;11.35;69.23;99294.09;126132;1095;103091;-74
2021/06/14 04:26:29;;;;;;;12.63;4.30;;;;;;;11.36;69.26;99291.34;125589;1096;102997;-75
2021/06/14 04:29:01;;;;;;;17.80;4.77;;;;;;;11.39;69.22;99291.11;125788;1094;103360;-76
2021/06/14 04:31:31;;;;;;;15.97;4.63;;;;;;;11.45;69.18;99292.47;125596;1095;103393;-73
2021/06/14 04:34:00;;;;;;;10.33;4.10;;;;;;;11.51;69.26;99299.15;125361;1094;103148;-74
2021/06/14 04:36:29;;;;;;;13.30;4.00;;;;;;;11.56;69.27;99294.34;125733;1096;102921;-75
2021/06/14 04:38:58;;;;;;;16.87;4.60;;;;;;;11.60;69.32;99299.34;125616;1094;103067;-74
2021/06/14 04:41:26;;;;;;;11.43;3.90;;;;;;;11.64;69.28;99291.97;125478;1095;103135;-74
2021/06/14 04:43:56;;;;;;;17.30;4.50;;;;;;;11.69;69.21;99289.82;125452;1094;102948;-73
2021/06/14 04:46:24;;;;;;;13.93;4.10;;;;;;;11.73;69.27;99295.76;127660;1096;100860;-73
2021/06/14 04:48:52;;;;;;;16.83;4.10;;;;;;;11.78;69.27;99295.44;127721;1095;100869;-73
2021/06/14 04:51:21;;;;;;;15.30;3.73;;;;;;;11.84;69.25;99308.28;127780;1096;100649;-72
2021/06/14 04:53:50;;;;;;;10.30;3.70;;;;;;;11.90;69.34;99307.83;127592;1096;101872;-74
2021/06/14 04:56:21;;;;;;;16.70;3.83;;;;;;;11.96;69.28;99301.21;125527;1096;103017;-75
2021/06/14 04:58:49;;;;;;;20.57;4.67;;;;;;;12.01;69.17;99307.92;125586;1095;102916;-74
2021/06/14 05:01:18;;;;;;;11.70;3.83;;;;;;;12.06;69.36;99300.43;125711;1095;103064;-74
2021/06/14 05:03:49;;;;;;;16.07;3.87;;;;;;;12.10;69.32;99308.20;125650;1094;103524;-74
2021/06/14 05:06:17;;;;;;;12.45;4.05;;;;;;;12.12;69.18;99304.44;125637;1094;103037;-74
2021/06/14 05:08:45;;;;;;;17.07;4.20;;;;;;;12.14;69.22;99307.00;125573;1096;102913;-74
2021/06/14 05:11:14;;;;;;;14.73;3.93;;;;;;;12.17;69.38;99302.28;125615;1095;103119;-74
2021/06/14 05:13:42;;;;;;;14.13;4.90;;;;;;;12.21;69.42;99305.58;125448;1096;103102;-74
2021/06/14 05:16:10;;;;;;;16.27;4.17;;;;;;;12.24;69.31;99304.48;125697;1094;102922;-73
2021/06/14 05:18:39;;;;;;;16.70;4.37;;;;;;;12.28;69.21;99298.78;125599;1095;102631;-75
2021/06/14 05:21:07;;;;;;;16.00;4.10;;;;;;;12.31;69.26;99300.39;125859;1097;103032;-74
2021/06/14 05:23:36;;;;;;;12.20;3.83;;;;;;;12.35;69.20;99304.52;125630;1096;102980;-75
2021/06/14 05:26:07;;;;;;;13.90;4.20;;;;;;;12.44;69.34;99298.45;125467;1095;103187;-73
2021/06/14 05:28:35;;;;;;;13.57;4.53;;;;;;;12.56;69.30;99295.81;125639;1096;102908;-74
2021/06/14 05:31:07;;;;;;;12.97;4.17;;;;;;;12.66;69.28;99302.16;125721;1096;103010;-75
2021/06/14 05:33:35;;;;;;;14.77;3.87;;;;;;;12.76;69.29;99292.47;125710;1096;103014;-74
2021/06/14 05:36:06;;;;;;;13.13;3.70;;;;;;;12.83;69.19;99289.31;125725;1096;102909;-75
2021/06/14 05:38:35;;;;;;;20.10;4.43;;;;;;;12.95;69.26;99296.33;125680;1096;103038;-75
2021/06/14 05:41:06;;;;;;;14.77;3.97;;;;;;;13.17;69.58;99300.82;125701;1096;103031;-73
2021/06/14 05:43:35;;;;;;;15.43;3.83;;;;;;;13.51;69.53;99308.81;125699;1096;103067;-74
2021/06/14 05:46:03;;;;;;;14.20;3.40;;;;;;;13.87;69.46;99310.41;125655;1096;103019;-74
2021/06/14 05:48:32;;;;;;;10.87;3.33;;;;;;;14.20;69.48;99308.59;125466;1096;103105;-74
2021/06/14 05:51:00;;;;;;;14.17;3.40;;;;;;;14.42;69.36;99313.81;125656;1094;103066;-73
2021/06/14 05:53:33;;;;;;;8.63;2.93;;;;;;;14.56;69.32;99311.80;126482;1096;100668;-73
2021/06/14 05:56:02;;;;;;;11.53;3.10;;;;;;;14.64;69.25;99309.32;125641;1094;103030;-72
2021/06/14 05:58:31;;;;;;;12.90;3.20;;;;;;;14.77;69.06;99313.63;125579;1095;102914;-73
2021/06/14 06:00:59;;;;;;;8.30;2.57;;;;;;;14.86;68.88;99324.41;125678;1096;102942;-74
2021/06/14 06:03:27;;;;;;;8.30;2.80;;;;;;;14.90;68.93;99316.95;125556;1095;103449;-74
2021/06/14 06:05:56;;;;;;;7.43;2.70;;;;;;;14.98;68.71;99317.13;125459;1095;103006;-72
2021/06/14 06:08:24;;;;;;;10.00;3.10;;;;;;;15.00;68.62;99314.31;125670;1096;103198;-72
2021/06/14 06:10:52;;;;;;;14.57;3.57;;;;;;;15.11;68.68;99308.86;125643;1096;103164;-71
2021/06/14 06:13:24;;;;;;;11.40;2.80;;;;;;;15.24;68.65;99313.98;125729;1095;102946;-71
2021/06/14 06:15:52;;;;;;;8.73;2.73;;;;;;;15.32;68.44;99316.84;125616;1096;103000;-72
2021/06/14 06:18:24;;;;;;;9.30;2.80;;;;;;;15.35;68.45;99310.34;125652;1094;102919;-74
2021/06/14 06:20:54;;;;;;;9.17;2.70;;;;;;;15.41;68.45;99307.12;125470;1096;102927;-72
2021/06/14 06:23:22;;;;;;;8.37;2.47;;;;;;;15.45;68.44;99307.71;125635;1096;102988;-73
2021/06/14 06:25:53;;;;;;;9.17;2.70;;;;;;;15.55;68.45;99300.52;125663;1095;102919;-72
2021/06/14 06:28:22;;;;;;;7.17;2.90;;;;;;;15.67;68.41;99301.27;125646;1094;103001;-74
2021/06/14 06:30:53;;;;;;;8.27;2.70;;;;;;;15.77;68.30;99302.10;125713;1097;102941;-72
2021/06/14 06:33:24;;;;;;;8.00;2.27;;;;;;;15.92;68.25;99299.88;125655;1095;103014;-74
2021/06/14 06:35:52;;;;;;;7.57;2.77;;;;;;;16.05;68.22;99291.58;125562;1096;103010;-74
2021/06/14 06:38:21;;;;;;;10.23;2.73;;;;;;;16.19;68.08;99289.44;125670;1096;103018;-73
2021/06/14 06:40:49;;;;;;;6.33;2.67;;;;;;;16.26;67.75;99282.51;125652;1096;103425;-73
2021/06/14 06:43:20;;;;;;;9.13;2.40;;;;;;;16.41;67.92;99288.27;125651;1095;102990;-74
2021/06/14 06:45:48;;;;;;;5.13;2.20;;;;;;;16.61;67.92;99297.14;125650;1095;103016;-73
2021/06/14 06:48:23;;;;;;;6.63;1.97;;;;;;;16.77;68.11;99290.33;125625;1095;103047;-74
2021/06/14 06:50:51;;;;;;;9.70;2.40;;;;;;;16.91;67.73;99287.14;125678;1095;103074;-75
2021/06/14 06:53:20;;;;;;;9.60;2.77;;;;;;;17.03;67.27;99286.99;125684;1096;103499;-75
2021/06/14 06:55:48;;;;;;;4.87;2.20;;;;;;;17.18;67.29;99296.27;125656;1096;103001;-74
2021/06/14 06:58:17;;;;;;;8.53;2.50;;;;;;;17.28;67.30;99296.22;125630;1096;103128;-73
2021/06/14 07:00:48;;;;;;;7.40;2.40;;;;;;;17.28;67.16;99300.77;125574;1095;103091;-74
2021/06/14 07:03:19;;;;;;;6.77;2.60;;;;;;;17.23;67.08;99302.05;125636;1094;102916;-72
2021/06/14 07:05:48;;;;;;;9.47;2.57;;;;;;;17.18;67.07;99311.53;125646;1095;102968;-72
2021/06/14 07:08:22;;;;;;;7.67;2.60;;;;;;;17.07;66.85;99299.14;125669;1096;102028;-73
2021/06/14 07:10:53;;;;;;;9.00;2.27;;;;;;;16.98;66.69;99300.89;125659;1095;103030;-73
2021/06/14 07:13:22;;;;;;;4.57;1.83;;;;;;;16.96;66.49;99295.64;125667;1095;103037;-73
2021/06/14 07:15:50;;;;;;;8.03;1.97;;;;;;;16.95;66.72;99279.66;125704;1094;102941;-73
2021/06/14 07:18:18;;;;;;;7.50;2.40;;;;;;;16.93;66.78;99298.59;125705;1096;102942;-72
2021/06/14 07:20:47;;;;;;;19.97;7.33;;;;;;;16.97;66.13;99291.13;125681;1095;102942;-72
2021/06/14 07:23:15;;;;;;;8.65;3.45;;;;;;;17.00;66.43;99292.66;125657;1097;102909;-72
2021/06/14 07:25:44;;;;;;;10.83;2.77;;;;;;;17.01;66.33;99297.05;125649;1094;103037;-72
2021/06/14 07:28:12;;;;;;;7.43;2.20;;;;;;;17.04;66.21;99299.44;125669;1096;103055;-73
2021/06/14 07:30:40;;;;;;;6.60;2.43;;;;;;;17.05;66.25;99304.68;125631;1095;103100;-72
2021/06/14 07:33:12;;;;;;;11.03;2.33;;;;;;;17.02;65.73;99314.86;125582;1094;102949;-72
2021/06/14 07:35:40;;;;;;;8.70;1.80;;;;;;;16.98;65.47;99308.95;125573;1095;103010;-72
2021/06/14 07:38:12;;;;;;;3.60;1.60;;;;;;;16.98;65.58;99310.77;125555;1096;103349;-72
2021/06/14 07:40:43;;;;;;;20.77;2.70;;;;;;;17.00;65.49;99316.84;125679;1095;103019;-72
2021/06/14 07:43:15;;;;;;;7.15;1.80;;;;;;;17.62;65.01;99286.69;125601;1095;103035;-72
2021/06/14 07:45:48;;;;;;;4.37;1.73;;;;;;;18.35;64.38;99285.69;125655;1095;102920;-72
2021/06/14 07:48:19;;;;;;;5.50;2.30;;;;;;;18.78;64.82;99296.57;125703;1095;102916;-72
2021/06/14 07:50:49;;;;;;;5.27;1.77;;;;;;;19.09;64.69;99297.95;125608;1095;103061;-73
2021/06/14 07:53:23;;;;;;;4.95;1.90;;;;;;;19.31;64.60;99302.78;125469;1096;102920;-71
2021/06/14 07:55:57;;;;;;;8.77;2.60;;;;;;;19.35;64.46;99300.59;125632;1094;103004;-72
2021/06/14 07:58:26;;;;;;;5.07;2.33;;;;;;;19.66;64.07;99299.17;125647;1096;103044;-71
2021/06/14 08:00:54;;;;;;;6.60;1.80;;;;;;;19.84;63.48;99307.14;125635;1095;102917;-72
2021/06/14 08:03:24;;;;;;;5.00;1.80;;;;;;;19.83;63.77;99300.88;125516;1095;102922;-71
2021/06/14 08:05:53;;;;;;;10.43;2.20;;;;;;;19.83;64.10;99300.88;125593;1095;102945;-72
2021/06/14 08:08:24;;;;;;;7.00;2.10;;;;;;;19.98;63.95;99309.20;125616;1095;103017;-71
2021/06/14 08:10:54;;;;;;;5.13;1.53;;;;;;;20.50;63.98;99304.48;125578;1095;103020;-72
2021/06/14 08:13:25;;;;;;;4.40;1.87;;;;;;;21.33;63.65;99296.19;125572;1095;103194;-72
2021/06/14 08:16:08;;;;;;;5.27;2.17;;;;;;;22.05;62.82;99295.10;125493;1096;103045;-72
2021/06/14 08:26:42;;;;;;;4.03;1.33;;;;;;;21.95;61.88;99313.48;125550;1096;103119;-71
2021/06/14 08:29:11;;;;;;;5.43;1.33;;;;;;;21.68;61.95;99323.77;125527;1094;103064;-71
2021/06/14 08:31:43;;;;;;;5.17;1.80;;;;;;;21.42;61.76;99317.61;125593;1095;102946;-72
2021/06/14 08:34:14;;;;;;;4.00;2.10;;;;;;;21.29;61.71;99325.46;125639;1094;102956;-71
2021/06/14 08:36:43;;;;;;;12.03;4.50;;;;;;;21.32;61.28;99318.84;125627;1094;102947;-72
2021/06/14 08:39:11;;;;;;;6.97;2.07;;;;;;;21.39;61.17;99314.42;125635;1096;103041;-72
2021/06/14 08:41:45;;;;;;;4.07;1.70;;;;;;;21.74;61.61;99314.12;125613;1095;103042;-72
2021/06/14 08:44:16;;;;;;;5.77;1.77;;;;;;;22.08;60.78;99305.58;125663;1094;102909;-71
2021/06/14 08:46:48;;;;;;;5.53;1.67;;;;;;;22.37;60.56;99312.14;125692;1095;102942;-71
2021/06/14 08:49:17;;;;;;;4.17;1.50;;;;;;;22.39;60.08;99314.66;125692;1097;103454;-72
2021/06/14 08:51:48;;;;;;;6.47;2.00;;;;;;;22.25;60.29;99305.46;125606;1096;103006;-72
2021/06/14 08:54:21;;;;;;;4.27;1.87;;;;;;;22.21;59.79;99315.80;125568;1095;103069;-73
2021/06/14 08:56:49;;;;;;;3.97;2.03;;;;;;;22.28;60.17;99308.63;125668;1096;102951;-72
2021/06/14 08:59:17;;;;;;;4.17;1.27;;;;;;;22.47;59.65;99314.62;125622;1096;103058;-72
2021/06/14 09:01:46;;;;;;;6.53;1.60;;;;;;;22.66;59.43;99307.83;125714;1096;103096;-72
2021/06/14 09:04:14;;;;;;;6.70;2.00;;;;;;;22.87;59.03;99308.96;125689;1096;103076;-73
2021/06/14 09:06:43;;;;;;;6.33;1.80;;;;;;;22.97;58.67;99298.69;125628;1096;102911;-72
2021/06/14 09:09:17;;;;;;;5.63;1.40;;;;;;;23.20;58.84;99303.19;125722;1096;102919;-72
2021/06/14 09:12:08;;;;;;;6.57;2.17;;;;;;;23.72;58.74;99304.05;125653;1096;102920;-72
2021/06/14 09:14:42;;;;;;;7.93;2.10;;;;;;;24.21;58.10;99296.22;125701;1095;103033;-72
2021/06/14 09:17:18;;;;;;;5.00;1.93;;;;;;;24.66;57.64;99306.82;125683;1097;103100;-73
2021/06/14 09:19:56;;;;;;;9.47;2.10;;;;;;;25.14;57.79;99305.27;125425;1097;102911;-73
2021/06/14 09:22:30;;;;;;;4.70;2.03;;;;;;;25.34;57.31;99308.92;125687;1096;102958;-73
2021/06/14 09:25:04;;;;;;;4.80;1.90;;;;;;;25.26;57.44;99309.11;125650;1094;103004;-72
2021/06/14 09:27:46;;;;;;;5.37;1.87;;;;;;;25.01;57.29;99298.70;125723;1096;102916;-73
2021/06/14 09:30:31;;;;;;;4.73;1.43;;;;;;;24.70;56.85;99310.83;125683;1096;103061;-73
2021/06/14 09:33:27;;;;;;;3.23;1.93;;;;;;;24.46;56.89;99317.54;125652;1095;102915;-73
2021/06/14 09:36:06;;;;;;;7.60;2.20;;;;;;;24.26;56.54;99309.21;125614;1095;102916;-72
2021/06/14 09:38:34;;;;;;;7.87;1.93;;;;;;;24.30;56.17;99296.91;125641;1096;103022;-71
2021/06/14 09:41:17;;;;;;;10.20;3.50;;;;;;;24.42;55.86;99298.08;125669;1096;103107;-72
2021/06/14 09:43:50;;;;;;;8.28;4.15;;;;;;;24.32;55.23;99300.28;125647;1096;102936;-71
2021/06/14 09:46:28;;;;;;;6.87;1.90;;;;;;;24.13;55.56;99308.05;125620;1095;103100;-72
2021/06/14 09:48:58;;;;;;;8.43;1.50;;;;;;;23.94;54.87;99295.91;125658;1096;102927;-71
2021/06/14 09:51:29;;;;;;;3.57;1.63;;;;;;;23.69;55.04;99301.72;125608;1096;103004;-71
2021/06/14 09:54:03;;;;;;;4.00;1.70;;;;;;;23.49;54.25;99302.31;125652;1095;103103;-72
2021/06/14 09:56:36;;;;;;;5.13;1.50;;;;;;;23.32;54.54;99311.72;125631;1096;102991;-72
2021/06/14 09:59:09;;;;;;;5.33;1.57;;;;;;;23.11;54.09;99307.02;125696;1096;102955;-73
2021/06/14 10:01:40;;;;;;;2.23;1.70;;;;;;;22.85;54.06;99294.75;125697;1096;103515;-72
2021/06/14 10:04:12;;;;;;;6.75;2.00;;;;;;;22.69;53.70;99296.63;125698;1096;102940;-71
2021/06/14 10:06:46;;;;;;;7.10;2.60;;;;;;;22.65;53.89;99297.16;125686;1096;103096;-69
2021/06/14 10:09:18;;;;;;;4.40;2.03;;;;;;;22.62;53.09;99292.13;125659;1096;103218;-71
2021/06/14 10:11:47;;;;;;;4.50;1.63;;;;;;;22.40;52.57;99300.94;125687;1095;103018;-71
2021/06/14 10:14:20;;;;;;;3.57;1.63;;;;;;;22.15;52.43;99303.01;125597;1096;103004;-71
2021/06/14 10:16:53;;;;;;;5.10;1.90;;;;;;;21.96;52.56;99298.91;125586;1095;103000;-71
2021/06/14 10:19:27;;;;;;;3.98;1.45;;;;;;;21.85;52.05;99294.73;125666;1095;103026;-72
2021/06/14 10:21:55;;;;;;;5.67;1.70;;;;;;;21.78;52.09;99294.63;125543;1095;103025;-71
2021/06/14 10:24:24;;;;;;;3.37;1.70;;;;;;;21.69;51.67;99290.27;125415;1096;103005;-72
2021/06/14 10:26:54;;;;;;;3.77;1.70;;;;;;;21.64;51.40;99298.94;125668;1096;102942;-72
2021/06/14 10:29:22;;;;;;;3.30;1.60;;;;;;;21.64;51.50;99289.96;125677;1096;103028;-71
2021/06/14 10:31:54;;;;;;;3.40;1.73;;;;;;;21.56;51.44;99296.24;125699;1095;103010;-70
2021/06/14 10:34:26;;;;;;;4.87;1.70;;;;;;;21.56;51.02;99291.69;125697;1097;103050;-72
2021/06/14 10:36:59;;;;;;;2.08;1.08;;;;;;;21.56;50.91;99297.10;125649;1095;103035;-72
2021/06/14 10:39:31;;;;;;;7.78;1.73;;;;;;;21.50;50.58;99307.77;125713;1096;103016;-72
2021/06/14 10:42:03;;;;;;;4.48;1.60;;;;;;;21.48;50.69;99307.10;125670;1096;102942;-72
2021/06/14 10:44:31;;;;;;;16.03;6.90;;;;;;;21.50;50.80;99305.06;125690;1096;102915;-73
2021/06/14 10:47:00;;;;;;;4.07;2.70;;;;;;;21.52;50.25;99297.61;125692;1094;103053;-71
2021/06/14 10:49:34;;;;;;;5.70;2.20;;;;;;;21.51;50.61;99282.39;125656;1096;103060;-72
2021/06/14 10:52:07;;;;;;;3.60;1.60;;;;;;;21.50;49.98;99291.53;125694;1095;102925;-72
2021/06/14 10:54:47;;;;;;;9.00;2.00;;;;;;;21.46;50.18;99293.77;125460;1096;103082;-71
2021/06/14 10:57:16;;;;;;;4.73;1.73;;;;;;;21.45;49.63;99289.38;125699;1095;103003;-71
2021/06/14 10:59:48;;;;;;;4.60;1.50;;;;;;;21.41;49.71;99282.63;125702;1096;102923;-72
2021/06/14 11:02:21;;;;;;;8.97;1.97;;;;;;;21.40;49.61;99287.17;125670;1096;103069;-71
2021/06/14 11:04:50;;;;;;;8.30;1.80;;;;;;;21.38;49.60;99280.27;125710;1096;102957;-71
2021/06/14 11:07:29;;;;;;;9.07;1.80;;;;;;;21.33;49.55;99269.13;125680;1097;102919;-71
2021/06/14 11:09:57;;;;;;;5.63;2.30;;;;;;;21.31;49.04;99276.58;125724;1097;102919;-71
2021/06/14 11:12:30;;;;;;;8.25;3.30;;;;;;;21.33;49.34;99272.70;125688;1096;103007;-71
2021/06/14 11:15:11;;;;;;;5.30;1.93;;;;;;;21.35;49.10;99262.55;125640;1096;102942;-72
2021/06/14 11:17:40;;;;;;;4.67;1.60;;;;;;;21.39;48.87;99263.88;125672;1095;102958;-71
2021/06/14 11:20:11;;;;;;;3.77;1.37;;;;;;;21.42;48.39;99273.48;125680;1096;102958;-71
2021/06/14 11:22:48;;;;;;;2.90;1.70;;;;;;;21.37;48.44;99265.91;125714;1096;102919;-72
2021/06/14 11:25:33;;;;;;;3.85;1.50;;;;;;;21.36;48.51;99263.37;125691;1096;103033;-72
2021/06/14 11:28:06;;;;;;;6.00;3.03;;;;;;;21.45;48.22;99261.45;125631;1096;103068;-70
2021/06/14 11:30:47;;;;;;;5.00;2.65;;;;;;;21.48;48.52;99253.84;125688;1096;102929;-72
2021/06/14 11:33:28;;;;;;;5.83;1.43;;;;;;;21.58;48.15;99261.72;125679;1096;102938;-71
2021/06/14 11:36:00;;;;;;;4.10;1.80;;;;;;;21.55;47.95;99249.41;125671;1095;103001;-71
2021/06/14 11:38:36;;;;;;;3.40;1.57;;;;;;;21.46;47.74;99252.31;125695;1095;102920;-71
2021/06/14 11:41:04;;;;;;;3.33;1.60;;;;;;;21.45;47.55;99251.48;125424;1096;103009;-71
2021/06/14 11:43:33;;;;;;;2.07;1.30;;;;;;;21.42;47.42;99241.02;125726;1096;103016;-71